sensor_id;sensor_type;location;lat;lon;timestamp;temperature;humidity
81524;DHT22;70954;49.500;10.416;2023-07-29T00:00:40;20.80;68.50
81524;DHT22;70954;49.500;10.416;2023-07-29T00:03:06;20.80;68.50
81524;DHT22;70954;49.500;10.416;2023-07-29T00:05:31;20.80;68.50
81524;DHT22;70954;49.500;10.416;2023-07-29T00:07:57;20.80;68.50
81524;DHT22;70954;49.500;10.416;2023-07-29T00:10:22;20.70;68.50
81524;DHT22;70954;49.500;10.416;2023-07-29T00:12:48;20.70;68.50
81524;DHT22;70954;49.500;10.416;2023-07-29T00:15:13;20.70;68.40
81524;DHT22;70954;49.500;10.416;2023-07-29T00:17:39;20.70;68.40
81524;DHT22;70954;49.500;10.416;2023-07-29T00:20:06;20.70;68.30
81524;DHT22;70954;49.500;10.416;2023-07-29T00:22:31;20.70;68.30
81524;DHT22;70954;49.500;10.416;2023-07-29T00:24:57;20.70;68.30
81524;DHT22;70954;49.500;10.416;2023-07-29T00:27:23;20.70;68.30
81524;DHT22;70954;49.500;10.416;2023-07-29T00:29:48;20.60;68.20
81524;DHT22;70954;49.500;10.416;2023-07-29T00:32:13;20.60;68.20
81524;DHT22;70954;49.500;10.416;2023-07-29T00:34:39;20.60;68.20
81524;DHT22;70954;49.500;10.416;2023-07-29T00:37:04;20.60;68.10
81524;DHT22;70954;49.500;10.416;2023-07-29T00:39:30;20.60;68.10
81524;DHT22;70954;49.500;10.416;2023-07-29T00:41:55;20.60;68.00
81524;DHT22;70954;49.500;10.416;2023-07-29T00:44:21;20.50;68.00
81524;DHT22;70954;49.500;10.416;2023-07-29T00:46:47;20.50;68.00
81524;DHT22;70954;49.500;10.416;2023-07-29T00:49:14;20.50;68.00
81524;DHT22;70954;49.500;10.416;2023-07-29T00:51:39;20.50;68.00
81524;DHT22;70954;49.500;10.416;2023-07-29T00:54:05;20.50;68.00
81524;DHT22;70954;49.500;10.416;2023-07-29T00:56:30;20.50;68.00
81524;DHT22;70954;49.500;10.416;2023-07-29T00:58:56;20.40;68.00
81524;DHT22;70954;49.500;10.416;2023-07-29T01:01:22;20.40;68.00
81524;DHT22;70954;49.500;10.416;2023-07-29T01:03:47;20.30;68.10
81524;DHT22;70954;49.500;10.416;2023-07-29T01:06:27;20.30;68.10
81524;DHT22;70954;49.500;10.416;2023-07-29T01:09:09;20.30;68.20
81524;DHT22;70954;49.500;10.416;2023-07-29T01:12:22;20.30;68.20
81524;DHT22;70954;49.500;10.416;2023-07-29T01:17:43;20.30;68.10
81524;DHT22;70954;49.500;10.416;2023-07-29T01:20:14;20.20;68.00
81524;DHT22;70954;49.500;10.416;2023-07-29T01:22:40;20.10;68.00
81524;DHT22;70954;49.500;10.416;2023-07-29T01:25:06;20.10;68.00
81524;DHT22;70954;49.500;10.416;2023-07-29T01:27:32;20.10;68.00
81524;DHT22;70954;49.500;10.416;2023-07-29T01:29:58;20.10;68.00
81524;DHT22;70954;49.500;10.416;2023-07-29T01:35:21;20.00;68.00
81524;DHT22;70954;49.500;10.416;2023-07-29T01:37:52;20.00;68.00
81524;DHT22;70954;49.500;10.416;2023-07-29T01:40:26;20.00;68.00
81524;DHT22;70954;49.500;10.416;2023-07-29T01:42:52;20.00;67.90
81524;DHT22;70954;49.500;10.416;2023-07-29T01:45:18;19.90;67.90
81524;DHT22;70954;49.500;10.416;2023-07-29T01:47:43;19.90;68.00
81524;DHT22;70954;49.500;10.416;2023-07-29T01:50:09;19.90;68.00
81524;DHT22;70954;49.500;10.416;2023-07-29T01:52:35;19.80;68.10
81524;DHT22;70954;49.500;10.416;2023-07-29T01:55:00;19.70;68.20
81524;DHT22;70954;49.500;10.416;2023-07-29T01:57:26;19.70;68.20
81524;DHT22;70954;49.500;10.416;2023-07-29T01:59:51;19.70;68.30
81524;DHT22;70954;49.500;10.416;2023-07-29T02:02:17;19.70;68.30
81524;DHT22;70954;49.500;10.416;2023-07-29T02:04:42;19.70;68.20
81524;DHT22;70954;49.500;10.416;2023-07-29T02:07:08;19.70;68.20
81524;DHT22;70954;49.500;10.416;2023-07-29T02:09:33;19.70;68.20
81524;DHT22;70954;49.500;10.416;2023-07-29T02:11:58;19.70;68.30
81524;DHT22;70954;49.500;10.416;2023-07-29T02:14:24;19.60;68.30
81524;DHT22;70954;49.500;10.416;2023-07-29T02:16:49;19.50;68.30
81524;DHT22;70954;49.500;10.416;2023-07-29T02:19:15;19.50;68.30
81524;DHT22;70954;49.500;10.416;2023-07-29T02:21:40;19.50;68.30
81524;DHT22;70954;49.500;10.416;2023-07-29T02:24:06;19.50;68.50
81524;DHT22;70954;49.500;10.416;2023-07-29T02:26:31;19.50;68.60
81524;DHT22;70954;49.500;10.416;2023-07-29T02:28:57;19.50;68.60
81524;DHT22;70954;49.500;10.416;2023-07-29T02:31:24;19.50;68.70
81524;DHT22;70954;49.500;10.416;2023-07-29T02:33:50;19.40;68.70
81524;DHT22;70954;49.500;10.416;2023-07-29T02:36:15;19.40;68.70
81524;DHT22;70954;49.500;10.416;2023-07-29T02:38:41;19.40;68.80
81524;DHT22;70954;49.500;10.416;2023-07-29T02:41:08;19.40;68.80
81524;DHT22;70954;49.500;10.416;2023-07-29T02:43:33;19.40;68.80
81524;DHT22;70954;49.500;10.416;2023-07-29T02:45:59;19.40;68.80
81524;DHT22;70954;49.500;10.416;2023-07-29T02:48:26;19.40;68.90
81524;DHT22;70954;49.500;10.416;2023-07-29T02:50:51;19.40;68.90
81524;DHT22;70954;49.500;10.416;2023-07-29T02:53:16;19.40;68.90
81524;DHT22;70954;49.500;10.416;2023-07-29T02:55:42;19.30;69.00
81524;DHT22;70954;49.500;10.416;2023-07-29T02:58:08;19.40;69.00
81524;DHT22;70954;49.500;10.416;2023-07-29T03:00:33;19.30;69.00
81524;DHT22;70954;49.500;10.416;2023-07-29T03:02:59;19.30;69.00
81524;DHT22;70954;49.500;10.416;2023-07-29T03:05:27;19.30;69.00
81524;DHT22;70954;49.500;10.416;2023-07-29T03:07:52;19.30;69.00
81524;DHT22;70954;49.500;10.416;2023-07-29T03:10:18;19.30;69.10
81524;DHT22;70954;49.500;10.416;2023-07-29T03:12:43;19.30;69.10
81524;DHT22;70954;49.500;10.416;2023-07-29T03:15:09;19.30;69.20
81524;DHT22;70954;49.500;10.416;2023-07-29T03:17:34;19.30;69.20
81524;DHT22;70954;49.500;10.416;2023-07-29T03:20:00;19.30;69.30
81524;DHT22;70954;49.500;10.416;2023-07-29T03:22:25;19.30;69.40
81524;DHT22;70954;49.500;10.416;2023-07-29T03:24:51;19.30;69.50
81524;DHT22;70954;49.500;10.416;2023-07-29T03:27:16;19.30;69.60
81524;DHT22;70954;49.500;10.416;2023-07-29T03:29:42;19.30;69.60
81524;DHT22;70954;49.500;10.416;2023-07-29T03:32:07;19.30;69.70
81524;DHT22;70954;49.500;10.416;2023-07-29T03:34:33;19.30;69.70
81524;DHT22;70954;49.500;10.416;2023-07-29T03:37:00;19.30;69.80
81524;DHT22;70954;49.500;10.416;2023-07-29T03:39:25;19.40;69.90
81524;DHT22;70954;49.500;10.416;2023-07-29T03:41:51;19.40;70.00
81524;DHT22;70954;49.500;10.416;2023-07-29T03:44:16;19.40;70.00
81524;DHT22;70954;49.500;10.416;2023-07-29T03:46:42;19.40;70.10
81524;DHT22;70954;49.500;10.416;2023-07-29T03:49:07;19.50;70.10
81524;DHT22;70954;49.500;10.416;2023-07-29T03:51:33;19.50;70.10
81524;DHT22;70954;49.500;10.416;2023-07-29T03:53:58;19.50;70.10
81524;DHT22;70954;49.500;10.416;2023-07-29T03:56:23;19.50;70.10
81524;DHT22;70954;49.500;10.416;2023-07-29T03:58:49;19.50;70.10
81524;DHT22;70954;49.500;10.416;2023-07-29T04:01:14;19.50;70.10
81524;DHT22;70954;49.500;10.416;2023-07-29T04:03:40;19.60;70.10
81524;DHT22;70954;49.500;10.416;2023-07-29T04:06:05;19.60;70.10
81524;DHT22;70954;49.500;10.416;2023-07-29T04:08:31;19.60;70.10
81524;DHT22;70954;49.500;10.416;2023-07-29T04:10:56;19.70;70.20
81524;DHT22;70954;49.500;10.416;2023-07-29T04:13:22;19.70;70.20
81524;DHT22;70954;49.500;10.416;2023-07-29T04:15:48;19.70;70.20
81524;DHT22;70954;49.500;10.416;2023-07-29T04:18:13;19.70;70.20
81524;DHT22;70954;49.500;10.416;2023-07-29T04:20:39;19.70;70.20
81524;DHT22;70954;49.500;10.416;2023-07-29T04:23:04;19.70;70.10
81524;DHT22;70954;49.500;10.416;2023-07-29T04:25:30;19.80;70.00
81524;DHT22;70954;49.500;10.416;2023-07-29T04:27:55;19.80;70.00
81524;DHT22;70954;49.500;10.416;2023-07-29T04:30:20;19.80;70.00
81524;DHT22;70954;49.500;10.416;2023-07-29T04:32:46;19.80;70.10
81524;DHT22;70954;49.500;10.416;2023-07-29T04:35:11;19.90;70.10
81524;DHT22;70954;49.500;10.416;2023-07-29T04:37:37;19.90;70.10
81524;DHT22;70954;49.500;10.416;2023-07-29T04:40:02;19.90;70.00
81524;DHT22;70954;49.500;10.416;2023-07-29T04:42:28;19.90;70.00
81524;DHT22;70954;49.500;10.416;2023-07-29T04:47:58;20.00;70.10
81524;DHT22;70954;49.500;10.416;2023-07-29T04:50:23;20.00;70.10
81524;DHT22;70954;49.500;10.416;2023-07-29T04:52:49;20.00;70.10
81524;DHT22;70954;49.500;10.416;2023-07-29T04:55:14;20.00;70.10
81524;DHT22;70954;49.500;10.416;2023-07-29T04:57:40;20.00;70.10
81524;DHT22;70954;49.500;10.416;2023-07-29T05:00:06;20.00;70.10
81524;DHT22;70954;49.500;10.416;2023-07-29T05:02:32;20.10;70.20
81524;DHT22;70954;49.500;10.416;2023-07-29T05:04:57;20.10;70.20
81524;DHT22;70954;49.500;10.416;2023-07-29T05:07:23;20.10;70.20
81524;DHT22;70954;49.500;10.416;2023-07-29T05:09:48;20.10;70.20
81524;DHT22;70954;49.500;10.416;2023-07-29T05:12:14;20.20;70.10
81524;DHT22;70954;49.500;10.416;2023-07-29T05:14:39;20.20;70.20
81524;DHT22;70954;49.500;10.416;2023-07-29T05:17:05;20.30;70.20
81524;DHT22;70954;49.500;10.416;2023-07-29T05:19:30;20.30;70.20
81524;DHT22;70954;49.500;10.416;2023-07-29T05:21:56;20.30;70.30
81524;DHT22;70954;49.500;10.416;2023-07-29T05:24:22;20.30;70.30
81524;DHT22;70954;49.500;10.416;2023-07-29T05:26:47;20.30;70.40
81524;DHT22;70954;49.500;10.416;2023-07-29T05:29:12;20.30;70.50
81524;DHT22;70954;49.500;10.416;2023-07-29T05:31:38;20.40;70.50
81524;DHT22;70954;49.500;10.416;2023-07-29T05:34:03;20.40;70.50
81524;DHT22;70954;49.500;10.416;2023-07-29T05:36:29;20.50;70.40
81524;DHT22;70954;49.500;10.416;2023-07-29T05:38:54;20.50;70.40
81524;DHT22;70954;49.500;10.416;2023-07-29T05:41:20;20.50;70.30
81524;DHT22;70954;49.500;10.416;2023-07-29T05:43:45;20.50;70.30
81524;DHT22;70954;49.500;10.416;2023-07-29T05:46:11;20.50;70.30
81524;DHT22;70954;49.500;10.416;2023-07-29T05:48:36;20.50;70.30
81524;DHT22;70954;49.500;10.416;2023-07-29T05:51:02;20.60;70.20
81524;DHT22;70954;49.500;10.416;2023-07-29T05:53:27;20.60;70.20
81524;DHT22;70954;49.500;10.416;2023-07-29T05:55:53;20.60;70.20
81524;DHT22;70954;49.500;10.416;2023-07-29T05:58:18;20.60;70.10
81524;DHT22;70954;49.500;10.416;2023-07-29T06:00:44;20.70;70.10
81524;DHT22;70954;49.500;10.416;2023-07-29T06:03:09;20.70;70.00
81524;DHT22;70954;49.500;10.416;2023-07-29T06:05:34;20.70;69.90
81524;DHT22;70954;49.500;10.416;2023-07-29T06:08:00;20.70;69.90
81524;DHT22;70954;49.500;10.416;2023-07-29T06:10:25;20.70;69.80
81524;DHT22;70954;49.500;10.416;2023-07-29T06:12:51;20.70;69.80
81524;DHT22;70954;49.500;10.416;2023-07-29T06:15:16;20.80;69.70
81524;DHT22;70954;49.500;10.416;2023-07-29T06:17:42;20.80;69.70
81524;DHT22;70954;49.500;10.416;2023-07-29T06:20:08;20.80;69.70
81524;DHT22;70954;49.500;10.416;2023-07-29T06:22:33;20.80;69.60
81524;DHT22;70954;49.500;10.416;2023-07-29T06:24:58;20.80;69.60
81524;DHT22;70954;49.500;10.416;2023-07-29T06:27:24;20.80;69.50
81524;DHT22;70954;49.500;10.416;2023-07-29T06:29:50;20.80;69.50
81524;DHT22;70954;49.500;10.416;2023-07-29T06:32:15;20.70;69.50
81524;DHT22;70954;49.500;10.416;2023-07-29T06:34:41;20.70;69.40
81524;DHT22;70954;49.500;10.416;2023-07-29T06:37:06;20.70;69.40
81524;DHT22;70954;49.500;10.416;2023-07-29T06:39:32;20.70;69.50
81524;DHT22;70954;49.500;10.416;2023-07-29T06:41:57;20.70;69.50
81524;DHT22;70954;49.500;10.416;2023-07-29T06:44:23;20.60;69.60
81524;DHT22;70954;49.500;10.416;2023-07-29T06:46:48;20.60;69.70
81524;DHT22;70954;49.500;10.416;2023-07-29T06:49:14;20.60;69.80
81524;DHT22;70954;49.500;10.416;2023-07-29T06:51:39;20.60;70.00
81524;DHT22;70954;49.500;10.416;2023-07-29T06:54:05;20.60;70.00
81524;DHT22;70954;49.500;10.416;2023-07-29T06:56:30;20.60;70.00
81524;DHT22;70954;49.500;10.416;2023-07-29T06:58:55;20.60;70.00
81524;DHT22;70954;49.500;10.416;2023-07-29T07:01:21;20.60;70.20
81524;DHT22;70954;49.500;10.416;2023-07-29T07:03:46;20.50;70.30
81524;DHT22;70954;49.500;10.416;2023-07-29T07:06:12;20.60;70.30
81524;DHT22;70954;49.500;10.416;2023-07-29T07:08:37;20.50;70.40
81524;DHT22;70954;49.500;10.416;2023-07-29T07:11:03;20.50;70.60
81524;DHT22;70954;49.500;10.416;2023-07-29T07:13:28;20.50;70.80
81524;DHT22;70954;49.500;10.416;2023-07-29T07:15:55;20.50;70.90
81524;DHT22;70954;49.500;10.416;2023-07-29T07:18:20;20.50;71.00
81524;DHT22;70954;49.500;10.416;2023-07-29T07:20:48;20.50;71.10
81524;DHT22;70954;49.500;10.416;2023-07-29T07:23:14;20.50;71.20
81524;DHT22;70954;49.500;10.416;2023-07-29T07:25:39;20.60;71.20
81524;DHT22;70954;49.500;10.416;2023-07-29T07:28:05;20.60;71.30
81524;DHT22;70954;49.500;10.416;2023-07-29T07:30:30;20.60;71.30
81524;DHT22;70954;49.500;10.416;2023-07-29T07:32:55;20.60;71.20
81524;DHT22;70954;49.500;10.416;2023-07-29T07:35:21;20.60;71.40
81524;DHT22;70954;49.500;10.416;2023-07-29T07:37:46;20.60;71.50
81524;DHT22;70954;49.500;10.416;2023-07-29T07:40:12;20.60;71.70
81524;DHT22;70954;49.500;10.416;2023-07-29T07:42:37;20.70;71.80
81524;DHT22;70954;49.500;10.416;2023-07-29T07:45:03;20.70;71.90
81524;DHT22;70954;49.500;10.416;2023-07-29T07:47:29;20.70;71.90
81524;DHT22;70954;49.500;10.416;2023-07-29T07:49:54;20.80;72.00
81524;DHT22;70954;49.500;10.416;2023-07-29T07:52:19;20.70;72.10
81524;DHT22;70954;49.500;10.416;2023-07-29T07:54:45;20.80;72.10
81524;DHT22;70954;49.500;10.416;2023-07-29T07:57:10;20.80;72.10
81524;DHT22;70954;49.500;10.416;2023-07-29T07:59:36;20.80;72.10
81524;DHT22;70954;49.500;10.416;2023-07-29T08:02:01;20.80;72.10
81524;DHT22;70954;49.500;10.416;2023-07-29T08:04:27;20.80;72.00
81524;DHT22;70954;49.500;10.416;2023-07-29T08:06:52;20.90;72.00
81524;DHT22;70954;49.500;10.416;2023-07-29T08:09:18;20.80;71.90
81524;DHT22;70954;49.500;10.416;2023-07-29T08:11:43;20.90;71.80
81524;DHT22;70954;49.500;10.416;2023-07-29T08:14:08;20.90;71.90
81524;DHT22;70954;49.500;10.416;2023-07-29T08:16:34;20.90;71.80
81524;DHT22;70954;49.500;10.416;2023-07-29T08:18:59;20.90;71.90
81524;DHT22;70954;49.500;10.416;2023-07-29T08:21:26;20.90;72.00
81524;DHT22;70954;49.500;10.416;2023-07-29T08:23:52;21.00;72.10
81524;DHT22;70954;49.500;10.416;2023-07-29T08:26:18;21.00;72.10
81524;DHT22;70954;49.500;10.416;2023-07-29T08:28:43;21.00;72.10
81524;DHT22;70954;49.500;10.416;2023-07-29T08:31:10;21.10;72.20
81524;DHT22;70954;49.500;10.416;2023-07-29T08:33:35;21.10;72.30
81524;DHT22;70954;49.500;10.416;2023-07-29T08:36:01;21.10;72.40
81524;DHT22;70954;49.500;10.416;2023-07-29T08:38:27;21.20;72.40
81524;DHT22;70954;49.500;10.416;2023-07-29T08:41:08;21.20;72.50
81524;DHT22;70954;49.500;10.416;2023-07-29T08:43:38;21.30;72.60
81524;DHT22;70954;49.500;10.416;2023-07-29T08:46:04;21.40;72.70
81524;DHT22;70954;49.500;10.416;2023-07-29T08:48:41;21.40;72.70
81524;DHT22;70954;49.500;10.416;2023-07-29T08:51:11;21.50;72.40
81524;DHT22;70954;49.500;10.416;2023-07-29T08:53:38;21.50;72.30
81524;DHT22;70954;49.500;10.416;2023-07-29T08:56:05;21.70;72.30
81524;DHT22;70954;49.500;10.416;2023-07-29T08:58:31;21.70;72.40
81524;DHT22;70954;49.500;10.416;2023-07-29T09:00:57;21.70;72.50
81524;DHT22;70954;49.500;10.416;2023-07-29T09:03:23;21.80;72.70
81524;DHT22;70954;49.500;10.416;2023-07-29T09:05:49;21.90;72.70
81524;DHT22;70954;49.500;10.416;2023-07-29T09:08:15;21.90;72.60
81524;DHT22;70954;49.500;10.416;2023-07-29T09:10:41;22.00;72.60
81524;DHT22;70954;49.500;10.416;2023-07-29T09:13:07;22.10;72.90
81524;DHT22;70954;49.500;10.416;2023-07-29T09:15:34;22.20;72.80
81524;DHT22;70954;49.500;10.416;2023-07-29T09:18:12;22.30;72.90
81524;DHT22;70954;49.500;10.416;2023-07-29T09:20:37;22.50;72.90
81524;DHT22;70954;49.500;10.416;2023-07-29T09:23:03;22.50;73.00
81524;DHT22;70954;49.500;10.416;2023-07-29T09:25:32;22.60;72.60
81524;DHT22;70954;49.500;10.416;2023-07-29T09:28:01;22.70;72.30
81524;DHT22;70954;49.500;10.416;2023-07-29T09:30:27;22.80;71.50
81524;DHT22;70954;49.500;10.416;2023-07-29T09:32:55;22.90;71.00
81524;DHT22;70954;49.500;10.416;2023-07-29T09:35:20;23.00;70.90
81524;DHT22;70954;49.500;10.416;2023-07-29T09:37:46;23.10;71.20
81524;DHT22;70954;49.500;10.416;2023-07-29T09:40:15;23.10;71.10
81524;DHT22;70954;49.500;10.416;2023-07-29T09:42:40;23.20;70.70
81524;DHT22;70954;49.500;10.416;2023-07-29T09:45:14;23.30;70.40
81524;DHT22;70954;49.500;10.416;2023-07-29T09:47:46;23.40;70.10
81524;DHT22;70954;49.500;10.416;2023-07-29T09:50:11;23.40;69.80
81524;DHT22;70954;49.500;10.416;2023-07-29T09:52:37;23.40;69.20
81524;DHT22;70954;49.500;10.416;2023-07-29T09:55:03;23.50;69.30
81524;DHT22;70954;49.500;10.416;2023-07-29T09:57:28;23.50;68.90
81524;DHT22;70954;49.500;10.416;2023-07-29T09:59:56;23.60;68.70
81524;DHT22;70954;49.500;10.416;2023-07-29T10:02:22;23.60;68.10
81524;DHT22;70954;49.500;10.416;2023-07-29T10:04:48;23.60;68.20
81524;DHT22;70954;49.500;10.416;2023-07-29T10:07:14;23.60;68.20
81524;DHT22;70954;49.500;10.416;2023-07-29T10:09:41;23.70;68.30
81524;DHT22;70954;49.500;10.416;2023-07-29T10:12:07;23.80;67.80
81524;DHT22;70954;49.500;10.416;2023-07-29T10:14:35;23.90;67.60
81524;DHT22;70954;49.500;10.416;2023-07-29T10:17:02;23.90;67.60
81524;DHT22;70954;49.500;10.416;2023-07-29T10:19:28;24.00;67.40
81524;DHT22;70954;49.500;10.416;2023-07-29T10:21:55;24.00;66.60
81524;DHT22;70954;49.500;10.416;2023-07-29T10:24:24;24.10;66.40
81524;DHT22;70954;49.500;10.416;2023-07-29T10:26:50;24.20;66.30
81524;DHT22;70954;49.500;10.416;2023-07-29T10:29:19;24.20;66.30
81524;DHT22;70954;49.500;10.416;2023-07-29T10:31:45;24.20;65.90
81524;DHT22;70954;49.500;10.416;2023-07-29T10:34:12;24.20;65.80
81524;DHT22;70954;49.500;10.416;2023-07-29T10:36:39;24.30;65.80
81524;DHT22;70954;49.500;10.416;2023-07-29T10:39:07;24.40;65.60
81524;DHT22;70954;49.500;10.416;2023-07-29T10:47:14;24.40;63.70
81524;DHT22;70954;49.500;10.416;2023-07-29T10:49:43;24.40;64.10
81524;DHT22;70954;49.500;10.416;2023-07-29T10:52:16;24.40;64.20
81524;DHT22;70954;49.500;10.416;2023-07-29T10:54:46;24.40;64.50
81524;DHT22;70954;49.500;10.416;2023-07-29T10:57:13;24.40;64.70
81524;DHT22;70954;49.500;10.416;2023-07-29T10:59:39;24.40;65.10
81524;DHT22;70954;49.500;10.416;2023-07-29T11:02:15;24.40;65.30
81524;DHT22;70954;49.500;10.416;2023-07-29T11:04:50;24.40;65.50
81524;DHT22;70954;49.500;10.416;2023-07-29T11:17:34;24.50;63.80
81524;DHT22;70954;49.500;10.416;2023-07-29T11:20:01;24.50;64.00
81524;DHT22;70954;49.500;10.416;2023-07-29T11:22:28;24.50;64.00
81524;DHT22;70954;49.500;10.416;2023-07-29T11:24:54;24.50;63.70
81524;DHT22;70954;49.500;10.416;2023-07-29T11:27:19;24.60;64.00
81524;DHT22;70954;49.500;10.416;2023-07-29T11:29:45;24.60;64.30
81524;DHT22;70954;49.500;10.416;2023-07-29T11:32:10;24.60;64.20
81524;DHT22;70954;49.500;10.416;2023-07-29T11:34:36;24.70;63.90
81524;DHT22;70954;49.500;10.416;2023-07-29T11:37:01;24.80;64.00
81524;DHT22;70954;49.500;10.416;2023-07-29T11:39:27;24.80;63.40
81524;DHT22;70954;49.500;10.416;2023-07-29T11:41:52;25.00;62.90
81524;DHT22;70954;49.500;10.416;2023-07-29T11:44:18;25.00;62.80
81524;DHT22;70954;49.500;10.416;2023-07-29T11:46:44;25.00;62.70
81524;DHT22;70954;49.500;10.416;2023-07-29T11:49:10;25.10;62.40
81524;DHT22;70954;49.500;10.416;2023-07-29T11:51:36;25.20;61.80
81524;DHT22;70954;49.500;10.416;2023-07-29T11:54:02;25.30;61.60
81524;DHT22;70954;49.500;10.416;2023-07-29T11:56:27;25.40;61.30
81524;DHT22;70954;49.500;10.416;2023-07-29T11:58:53;25.50;61.40
81524;DHT22;70954;49.500;10.416;2023-07-29T12:01:19;25.50;60.50
81524;DHT22;70954;49.500;10.416;2023-07-29T12:03:45;25.60;60.50
81524;DHT22;70954;49.500;10.416;2023-07-29T12:06:11;25.60;60.30
81524;DHT22;70954;49.500;10.416;2023-07-29T12:08:36;25.80;60.40
81524;DHT22;70954;49.500;10.416;2023-07-29T12:11:02;25.80;60.30
81524;DHT22;70954;49.500;10.416;2023-07-29T12:13:29;25.90;59.00
81524;DHT22;70954;49.500;10.416;2023-07-29T12:16:01;26.00;58.20
81524;DHT22;70954;49.500;10.416;2023-07-29T12:18:31;26.00;57.30
81524;DHT22;70954;49.500;10.416;2023-07-29T12:20:57;26.10;57.70
81524;DHT22;70954;49.500;10.416;2023-07-29T12:23:26;26.10;57.30
81524;DHT22;70954;49.500;10.416;2023-07-29T12:25:56;26.20;57.00
81524;DHT22;70954;49.500;10.416;2023-07-29T12:28:22;26.20;56.80
81524;DHT22;70954;49.500;10.416;2023-07-29T12:30:52;26.20;57.10
81524;DHT22;70954;49.500;10.416;2023-07-29T12:33:34;26.30;56.90
81524;DHT22;70954;49.500;10.416;2023-07-29T12:36:01;26.30;54.10
81524;DHT22;70954;49.500;10.416;2023-07-29T12:38:27;26.40;56.20
81524;DHT22;70954;49.500;10.416;2023-07-29T12:40:52;26.40;56.30
81524;DHT22;70954;49.500;10.416;2023-07-29T12:43:18;26.40;55.70
81524;DHT22;70954;49.500;10.416;2023-07-29T12:45:43;26.40;55.90
81524;DHT22;70954;49.500;10.416;2023-07-29T12:48:09;26.40;55.80
81524;DHT22;70954;49.500;10.416;2023-07-29T12:50:35;26.40;55.60
81524;DHT22;70954;49.500;10.416;2023-07-29T12:53:00;26.40;55.90
81524;DHT22;70954;49.500;10.416;2023-07-29T12:55:26;26.40;56.20
81524;DHT22;70954;49.500;10.416;2023-07-29T12:57:51;26.50;56.20
81524;DHT22;70954;49.500;10.416;2023-07-29T13:00:18;26.50;55.80
81524;DHT22;70954;49.500;10.416;2023-07-29T13:02:43;26.50;55.30
81524;DHT22;70954;49.500;10.416;2023-07-29T13:05:10;26.60;55.00
81524;DHT22;70954;49.500;10.416;2023-07-29T13:07:39;26.60;55.10
81524;DHT22;70954;49.500;10.416;2023-07-29T13:10:05;26.60;55.10
81524;DHT22;70954;49.500;10.416;2023-07-29T13:12:32;26.60;55.10
81524;DHT22;70954;49.500;10.416;2023-07-29T13:14:57;26.60;55.40
81524;DHT22;70954;49.500;10.416;2023-07-29T13:17:23;26.60;55.70
81524;DHT22;70954;49.500;10.416;2023-07-29T13:19:48;26.60;55.70
81524;DHT22;70954;49.500;10.416;2023-07-29T13:22:14;26.60;55.70
81524;DHT22;70954;49.500;10.416;2023-07-29T13:24:40;26.70;55.30
81524;DHT22;70954;49.500;10.416;2023-07-29T13:27:05;26.70;55.00
81524;DHT22;70954;49.500;10.416;2023-07-29T13:29:31;26.70;55.00
81524;DHT22;70954;49.500;10.416;2023-07-29T13:31:56;26.80;54.80
81524;DHT22;70954;49.500;10.416;2023-07-29T13:34:22;26.80;54.90
81524;DHT22;70954;49.500;10.416;2023-07-29T13:36:47;26.80;54.50
81524;DHT22;70954;49.500;10.416;2023-07-29T13:39:13;26.90;54.10
81524;DHT22;70954;49.500;10.416;2023-07-29T13:41:38;26.90;53.70
81524;DHT22;70954;49.500;10.416;2023-07-29T13:44:04;26.90;53.30
81524;DHT22;70954;49.500;10.416;2023-07-29T13:46:29;26.90;53.00
81524;DHT22;70954;49.500;10.416;2023-07-29T13:48:55;26.90;52.90
81524;DHT22;70954;49.500;10.416;2023-07-29T13:51:20;26.90;52.70
81524;DHT22;70954;49.500;10.416;2023-07-29T13:53:46;26.90;52.90
81524;DHT22;70954;49.500;10.416;2023-07-29T13:56:11;26.90;52.80
81524;DHT22;70954;49.500;10.416;2023-07-29T13:58:37;27.00;52.70
81524;DHT22;70954;49.500;10.416;2023-07-29T14:01:02;27.00;52.80
81524;DHT22;70954;49.500;10.416;2023-07-29T14:03:28;27.00;52.70
81524;DHT22;70954;49.500;10.416;2023-07-29T14:05:53;27.00;52.70
81524;DHT22;70954;49.500;10.416;2023-07-29T14:08:19;27.00;52.60
81524;DHT22;70954;49.500;10.416;2023-07-29T14:10:44;27.00;51.50
81524;DHT22;70954;49.500;10.416;2023-07-29T14:13:10;27.00;51.40
81524;DHT22;70954;49.500;10.416;2023-07-29T14:15:36;27.00;51.50
81524;DHT22;70954;49.500;10.416;2023-07-29T14:18:01;27.00;51.60
81524;DHT22;70954;49.500;10.416;2023-07-29T14:20:27;27.00;51.60
81524;DHT22;70954;49.500;10.416;2023-07-29T14:22:52;27.00;51.70
81524;DHT22;70954;49.500;10.416;2023-07-29T14:25:18;26.90;52.00
81524;DHT22;70954;49.500;10.416;2023-07-29T14:27:43;27.00;52.20
81524;DHT22;70954;49.500;10.416;2023-07-29T14:30:09;27.00;52.10
81524;DHT22;70954;49.500;10.416;2023-07-29T14:32:35;27.00;51.80
81524;DHT22;70954;49.500;10.416;2023-07-29T14:35:00;27.00;51.50
81524;DHT22;70954;49.500;10.416;2023-07-29T14:37:25;27.10;51.20
81524;DHT22;70954;49.500;10.416;2023-07-29T14:39:51;27.10;50.70
81524;DHT22;70954;49.500;10.416;2023-07-29T14:42:16;27.10;50.50
81524;DHT22;70954;49.500;10.416;2023-07-29T14:44:42;27.10;49.90
81524;DHT22;70954;49.500;10.416;2023-07-29T14:47:08;27.10;49.30
81524;DHT22;70954;49.500;10.416;2023-07-29T14:49:33;27.10;49.80
81524;DHT22;70954;49.500;10.416;2023-07-29T14:51:59;27.20;49.60
81524;DHT22;70954;49.500;10.416;2023-07-29T14:54:24;27.20;48.80
81524;DHT22;70954;49.500;10.416;2023-07-29T14:56:50;27.20;48.60
81524;DHT22;70954;49.500;10.416;2023-07-29T14:59:15;27.20;47.70
81524;DHT22;70954;49.500;10.416;2023-07-29T15:01:41;27.20;47.70
81524;DHT22;70954;49.500;10.416;2023-07-29T15:04:06;27.30;47.50
81524;DHT22;70954;49.500;10.416;2023-07-29T15:06:31;27.30;47.70
81524;DHT22;70954;49.500;10.416;2023-07-29T15:08:57;27.30;47.40
81524;DHT22;70954;49.500;10.416;2023-07-29T15:11:23;27.30;47.10
81524;DHT22;70954;49.500;10.416;2023-07-29T15:13:48;27.30;46.90
81524;DHT22;70954;49.500;10.416;2023-07-29T15:16:13;27.30;46.60
81524;DHT22;70954;49.500;10.416;2023-07-29T15:18:39;27.30;47.00
81524;DHT22;70954;49.500;10.416;2023-07-29T15:21:04;27.30;47.00
81524;DHT22;70954;49.500;10.416;2023-07-29T15:23:30;27.30;46.80
81524;DHT22;70954;49.500;10.416;2023-07-29T15:25:55;27.30;47.00
81524;DHT22;70954;49.500;10.416;2023-07-29T15:28:21;27.30;47.20
81524;DHT22;70954;49.500;10.416;2023-07-29T15:30:46;27.30;47.30
81524;DHT22;70954;49.500;10.416;2023-07-29T15:33:12;27.30;47.20